• Join FlightAware (Why Join?)
  • Login
  • US Flag 
01:18PM EDT


 

Airport Tracker/Info


-or-


 

Live Flight TrackerFlight Track Log ✈ CHH7668 ✈ 29-Mar-2014 ✈ ZUCK / CKG - ZLXY / XIY

Flight Track Log - Related Links

Times and Time Zones

All times are in EDT time to prevent confusion due to time zone crossing. See the CHH7668 flight status page for this flight to view local times or setup timezone preferences in your user account.

Time Position Orientation Groundspeed Altitude Reporting Facility
EDT Latitude Longitude Course Direction KTS MPH feet Rate Location/Type
11:19AM 30.5410 106.9915 20° North  Level Estimated
11:20AM 30.6323 107.0309 20° North  Level Estimated
11:21AM 30.7235 107.0703 20° North  Level Estimated
11:22AM 30.8147 107.1097 20° North  Level Estimated
11:23AM 30.9059 107.1492 20° North  Level Estimated
11:24AM 30.9971 107.1889 20° North  Level Estimated
11:25AM 31.0883 107.2286 20° North  Level Estimated
11:26AM 31.1794 107.2683 20° North  Level Estimated
11:27AM 31.2706 107.3082 20° North  Level Estimated
11:28AM 31.3617 107.3481 21° North  Level Estimated
11:29AM 31.4529 107.3881 21° North  Level Estimated
11:30AM 31.5440 107.4281 21° North  Level Estimated
11:31AM 31.6351 107.4683 21° North  Level Estimated
11:32AM 31.7262 107.5085 21° North  Level Estimated
11:33AM 31.8172 107.5488 21° North  Level Estimated
11:34AM 31.9083 107.5892 21° North  Level Estimated
11:35AM 31.9994 107.6297 21° North  Level Estimated
11:36AM 32.0904 107.6702 21° North  Level Estimated
11:37AM 32.1814 107.7109 21° North  Level Estimated
11:38AM 32.2724 107.7516 21° North  Level Estimated
11:39AM 32.3634 107.7924 21° North  Level Estimated
11:40AM 32.4544 107.8332 21° North  Level Estimated
11:41AM 32.5454 107.8742 21° North  Level Estimated
11:42AM 32.6364 107.9152 21° North  Level Estimated
11:43AM 32.7273 107.9564 21° North  Level Estimated
11:44AM 32.8182 107.9976 21° North  Level Estimated
11:45AM 32.9092 108.0389 21° North  Level Estimated
11:46AM 33.0001 108.0802 21° North  Level Estimated
11:47AM 33.0910 108.1217 21° North  Level Estimated
11:48AM 33.1818 108.1633 21° North  Level Estimated
11:49AM 33.2727 108.2049 21° North  Level Estimated
11:50AM 33.3636 108.2466 21° North  Level Estimated
11:51AM 33.4544 108.2884 21° North  Level Estimated
11:52AM 33.5452 108.3303 21° North  Level Estimated
11:53AM 33.6360 108.3723 21° North  Level Estimated
11:54AM 33.7268 108.4144 21° North  Level Estimated
11:55AM 33.8176 108.4565 21° North  Level Estimated
11:56AM 33.9084 108.4988 21° North  Level Estimated
11:57AM 33.9991 108.5411 21° North  Level Estimated
11:58AM 34.0899 108.5836 21° North  Level Estimated
11:59AM 34.1806 108.6261 21° North  Level Estimated
12:00PM 34.2713 108.6687 21° North  Level Estimated
12:01PM 34.3620 108.7114 21° North  Level Estimated
12:02PM 34.4471 108.7516 21° North  Level Estimated
12:03PM 34.4471 108.7516 North  Level Estimated
12:04PM 34.4471 108.7516 North  Level Estimated
12:05PM 34.4471 108.7516 North  Level Estimated
12:06PM 34.4471 108.7516 North  Level Estimated
12:07PM 34.4471 108.7516 North  Level Estimated
12:08PM 34.4471 108.7516 North  Level Estimated
12:09PM 34.4471 108.7516 North  Level Estimated
12:10PM 34.4471 108.7516 North  Level Estimated
12:11PM 34.4471 108.7516 North  Level Estimated
12:12PM 34.4471 108.7516 North  Level Estimated
12:13PM 34.4471 108.7516 North  Level Estimated
12:14PM 34.4471 108.7516 North  Level Estimated
12:15PM 34.4471 108.7516 North  Level Estimated
12:16PM 34.4471 108.7516 North  Level Estimated